sensor_id;sensor_type;location;lat;lon;timestamp;P1;durP1;ratioP1;P2;durP2;ratioP2
74245;SDS011;62601;51.044;13.788;2023-01-26T00:02:10;36.60;;;21.50;;
74245;SDS011;62601;51.044;13.788;2023-01-26T00:04:30;41.00;;;22.40;;
74245;SDS011;62601;51.044;13.788;2023-01-26T00:06:51;38.35;;;20.70;;
74245;SDS011;62601;51.044;13.788;2023-01-26T00:09:11;40.35;;;22.60;;
74245;SDS011;62601;51.044;13.788;2023-01-26T00:11:32;38.92;;;21.08;;
74245;SDS011;62601;51.044;13.788;2023-01-26T00:13:54;39.40;;;22.70;;
74245;SDS011;62601;51.044;13.788;2023-01-26T00:16:14;39.78;;;22.27;;
74245;SDS011;62601;51.044;13.788;2023-01-26T00:18:36;40.55;;;22.85;;
74245;SDS011;62601;51.044;13.788;2023-01-26T00:20:57;38.58;;;22.30;;
74245;SDS011;62601;51.044;13.788;2023-01-26T00:23:17;37.33;;;21.92;;
74245;SDS011;62601;51.044;13.788;2023-01-26T00:25:37;40.38;;;22.20;;
74245;SDS011;62601;51.044;13.788;2023-01-26T00:27:57;37.88;;;23.00;;
74245;SDS011;62601;51.044;13.788;2023-01-26T00:30:18;40.25;;;22.30;;
74245;SDS011;62601;51.044;13.788;2023-01-26T00:32:38;33.90;;;21.13;;
74245;SDS011;62601;51.044;13.788;2023-01-26T00:34:58;38.38;;;21.05;;
74245;SDS011;62601;51.044;13.788;2023-01-26T00:37:18;37.88;;;21.08;;
74245;SDS011;62601;51.044;13.788;2023-01-26T00:39:39;42.85;;;22.50;;
74245;SDS011;62601;51.044;13.788;2023-01-26T00:42:00;40.80;;;21.63;;
74245;SDS011;62601;51.044;13.788;2023-01-26T00:44:20;38.90;;;20.58;;
74245;SDS011;62601;51.044;13.788;2023-01-26T00:46:41;37.58;;;21.42;;
74245;SDS011;62601;51.044;13.788;2023-01-26T00:49:01;34.45;;;20.05;;
74245;SDS011;62601;51.044;13.788;2023-01-26T00:51:21;39.10;;;21.77;;
74245;SDS011;62601;51.044;13.788;2023-01-26T00:53:43;43.95;;;21.40;;
74245;SDS011;62601;51.044;13.788;2023-01-26T00:56:04;40.03;;;21.27;;
74245;SDS011;62601;51.044;13.788;2023-01-26T00:58:25;46.05;;;23.13;;
74245;SDS011;62601;51.044;13.788;2023-01-26T01:00:46;44.60;;;22.42;;
74245;SDS011;62601;51.044;13.788;2023-01-26T01:03:08;39.92;;;24.13;;
74245;SDS011;62601;51.044;13.788;2023-01-26T01:05:30;45.88;;;24.33;;
74245;SDS011;62601;51.044;13.788;2023-01-26T01:07:52;38.17;;;21.30;;
74245;SDS011;62601;51.044;13.788;2023-01-26T01:10:12;41.63;;;23.25;;
74245;SDS011;62601;51.044;13.788;2023-01-26T01:12:35;43.97;;;22.80;;
74245;SDS011;62601;51.044;13.788;2023-01-26T01:14:55;40.28;;;22.35;;
74245;SDS011;62601;51.044;13.788;2023-01-26T01:17:16;38.63;;;22.45;;
74245;SDS011;62601;51.044;13.788;2023-01-26T01:19:37;44.33;;;23.35;;
74245;SDS011;62601;51.044;13.788;2023-01-26T01:21:57;44.20;;;23.20;;
74245;SDS011;62601;51.044;13.788;2023-01-26T01:24:19;41.65;;;22.58;;
74245;SDS011;62601;51.044;13.788;2023-01-26T01:26:39;46.20;;;24.17;;
74245;SDS011;62601;51.044;13.788;2023-01-26T01:28:59;42.17;;;21.90;;
74245;SDS011;62601;51.044;13.788;2023-01-26T01:31:21;44.28;;;24.20;;
74245;SDS011;62601;51.044;13.788;2023-01-26T01:33:42;47.05;;;23.60;;
74245;SDS011;62601;51.044;13.788;2023-01-26T01:36:09;38.95;;;20.63;;
74245;SDS011;62601;51.044;13.788;2023-01-26T01:38:30;43.92;;;21.48;;
74245;SDS011;62601;51.044;13.788;2023-01-26T01:40:52;42.85;;;22.25;;
74245;SDS011;62601;51.044;13.788;2023-01-26T01:43:12;45.78;;;22.17;;
74245;SDS011;62601;51.044;13.788;2023-01-26T01:45:47;41.58;;;20.58;;
74245;SDS011;62601;51.044;13.788;2023-01-26T01:50:48;36.95;;;20.45;;
74245;SDS011;62601;51.044;13.788;2023-01-26T01:53:11;36.83;;;20.67;;
74245;SDS011;62601;51.044;13.788;2023-01-26T01:55:33;39.63;;;20.30;;
74245;SDS011;62601;51.044;13.788;2023-01-26T01:57:57;41.28;;;21.67;;
74245;SDS011;62601;51.044;13.788;2023-01-26T02:00:19;43.55;;;22.95;;
74245;SDS011;62601;51.044;13.788;2023-01-26T02:02:40;41.35;;;21.77;;
74245;SDS011;62601;51.044;13.788;2023-01-26T02:05:02;41.88;;;21.95;;
74245;SDS011;62601;51.044;13.788;2023-01-26T02:07:25;44.95;;;22.20;;
74245;SDS011;62601;51.044;13.788;2023-01-26T02:09:48;39.92;;;21.85;;
74245;SDS011;62601;51.044;13.788;2023-01-26T02:12:10;42.17;;;20.95;;
74245;SDS011;62601;51.044;13.788;2023-01-26T02:14:32;40.15;;;20.80;;
74245;SDS011;62601;51.044;13.788;2023-01-26T02:16:53;49.15;;;23.25;;
74245;SDS011;62601;51.044;13.788;2023-01-26T02:19:17;47.10;;;23.38;;
74245;SDS011;62601;51.044;13.788;2023-01-26T02:21:41;43.08;;;22.75;;
74245;SDS011;62601;51.044;13.788;2023-01-26T02:24:36;51.90;;;23.85;;
74245;SDS011;62601;51.044;13.788;2023-01-26T02:26:49;50.53;;;22.52;;
74245;SDS011;62601;51.044;13.788;2023-01-26T02:29:10;49.10;;;23.70;;
74245;SDS011;62601;51.044;13.788;2023-01-26T02:31:30;50.47;;;23.00;;
74245;SDS011;62601;51.044;13.788;2023-01-26T02:33:50;56.80;;;24.85;;
74245;SDS011;62601;51.044;13.788;2023-01-26T02:36:25;54.60;;;24.88;;
74245;SDS011;62601;51.044;13.788;2023-01-26T02:38:48;50.63;;;23.65;;
74245;SDS011;62601;51.044;13.788;2023-01-26T02:41:11;46.58;;;22.30;;
74245;SDS011;62601;51.044;13.788;2023-01-26T02:43:33;55.38;;;23.13;;
74245;SDS011;62601;51.044;13.788;2023-01-26T02:45:54;48.35;;;23.38;;
74245;SDS011;62601;51.044;13.788;2023-01-26T02:48:14;47.72;;;21.35;;
74245;SDS011;62601;51.044;13.788;2023-01-26T02:50:34;49.88;;;23.27;;
74245;SDS011;62601;51.044;13.788;2023-01-26T02:52:54;54.92;;;23.88;;
74245;SDS011;62601;51.044;13.788;2023-01-26T02:55:14;55.08;;;25.80;;
74245;SDS011;62601;51.044;13.788;2023-01-26T02:57:34;52.03;;;23.35;;
74245;SDS011;62601;51.044;13.788;2023-01-26T02:59:54;61.67;;;25.73;;
74245;SDS011;62601;51.044;13.788;2023-01-26T03:02:14;53.58;;;24.83;;
74245;SDS011;62601;51.044;13.788;2023-01-26T03:04:35;53.90;;;23.77;;
74245;SDS011;62601;51.044;13.788;2023-01-26T03:06:55;57.42;;;25.27;;
74245;SDS011;62601;51.044;13.788;2023-01-26T03:09:15;52.88;;;25.48;;
74245;SDS011;62601;51.044;13.788;2023-01-26T03:11:36;50.60;;;22.65;;
74245;SDS011;62601;51.044;13.788;2023-01-26T03:13:56;55.95;;;24.08;;
74245;SDS011;62601;51.044;13.788;2023-01-26T03:16:16;44.72;;;21.10;;
74245;SDS011;62601;51.044;13.788;2023-01-26T03:18:36;50.17;;;22.30;;
74245;SDS011;62601;51.044;13.788;2023-01-26T03:20:57;46.30;;;21.65;;
74245;SDS011;62601;51.044;13.788;2023-01-26T03:23:18;47.58;;;22.73;;
74245;SDS011;62601;51.044;13.788;2023-01-26T03:25:38;47.67;;;22.70;;
74245;SDS011;62601;51.044;13.788;2023-01-26T03:27:58;49.60;;;21.60;;
74245;SDS011;62601;51.044;13.788;2023-01-26T03:30:18;36.92;;;19.70;;
74245;SDS011;62601;51.044;13.788;2023-01-26T03:32:38;40.70;;;21.08;;
74245;SDS011;62601;51.044;13.788;2023-01-26T03:34:58;43.05;;;21.08;;
74245;SDS011;62601;51.044;13.788;2023-01-26T03:37:19;52.17;;;24.10;;
74245;SDS011;62601;51.044;13.788;2023-01-26T03:39:39;49.95;;;23.65;;
74245;SDS011;62601;51.044;13.788;2023-01-26T03:41:59;49.72;;;23.23;;
74245;SDS011;62601;51.044;13.788;2023-01-26T03:44:19;51.70;;;22.65;;
74245;SDS011;62601;51.044;13.788;2023-01-26T03:46:39;48.85;;;23.77;;
74245;SDS011;62601;51.044;13.788;2023-01-26T03:48:59;49.40;;;24.58;;
74245;SDS011;62601;51.044;13.788;2023-01-26T03:51:19;45.97;;;22.23;;
74245;SDS011;62601;51.044;13.788;2023-01-26T03:53:39;47.55;;;21.85;;
74245;SDS011;62601;51.044;13.788;2023-01-26T03:56:00;49.60;;;21.90;;
74245;SDS011;62601;51.044;13.788;2023-01-26T03:58:20;49.38;;;24.00;;
74245;SDS011;62601;51.044;13.788;2023-01-26T04:00:40;52.80;;;22.00;;
74245;SDS011;62601;51.044;13.788;2023-01-26T04:03:00;48.40;;;22.05;;
74245;SDS011;62601;51.044;13.788;2023-01-26T04:05:20;52.80;;;21.67;;
74245;SDS011;62601;51.044;13.788;2023-01-26T04:07:40;48.95;;;23.38;;
74245;SDS011;62601;51.044;13.788;2023-01-26T04:10:00;51.30;;;21.55;;
74245;SDS011;62601;51.044;13.788;2023-01-26T04:12:20;55.17;;;23.40;;
74245;SDS011;62601;51.044;13.788;2023-01-26T04:14:40;53.53;;;21.35;;
74245;SDS011;62601;51.044;13.788;2023-01-26T04:17:01;54.40;;;22.25;;
74245;SDS011;62601;51.044;13.788;2023-01-26T04:19:21;57.03;;;22.80;;
74245;SDS011;62601;51.044;13.788;2023-01-26T04:21:41;59.15;;;23.70;;
74245;SDS011;62601;51.044;13.788;2023-01-26T04:24:03;47.83;;;21.23;;
74245;SDS011;62601;51.044;13.788;2023-01-26T04:26:24;52.33;;;23.70;;
74245;SDS011;62601;51.044;13.788;2023-01-26T04:28:44;58.67;;;25.48;;
74245;SDS011;62601;51.044;13.788;2023-01-26T04:31:04;51.22;;;24.20;;
74245;SDS011;62601;51.044;13.788;2023-01-26T04:33:25;55.40;;;22.70;;
74245;SDS011;62601;51.044;13.788;2023-01-26T04:35:45;57.17;;;24.83;;
74245;SDS011;62601;51.044;13.788;2023-01-26T04:38:05;47.65;;;20.98;;
74245;SDS011;62601;51.044;13.788;2023-01-26T04:40:26;52.70;;;21.27;;
74245;SDS011;62601;51.044;13.788;2023-01-26T04:42:46;49.10;;;21.48;;
74245;SDS011;62601;51.044;13.788;2023-01-26T04:45:08;49.53;;;20.70;;
74245;SDS011;62601;51.044;13.788;2023-01-26T04:47:30;49.78;;;21.33;;
74245;SDS011;62601;51.044;13.788;2023-01-26T04:49:50;44.33;;;20.48;;
74245;SDS011;62601;51.044;13.788;2023-01-26T04:52:11;45.95;;;19.65;;
74245;SDS011;62601;51.044;13.788;2023-01-26T04:54:33;47.33;;;20.48;;
74245;SDS011;62601;51.044;13.788;2023-01-26T04:56:55;38.58;;;17.95;;
74245;SDS011;62601;51.044;13.788;2023-01-26T04:59:16;42.75;;;18.50;;
74245;SDS011;62601;51.044;13.788;2023-01-26T05:01:38;34.70;;;17.92;;
74245;SDS011;62601;51.044;13.788;2023-01-26T05:03:59;36.67;;;17.65;;
74245;SDS011;62601;51.044;13.788;2023-01-26T05:06:19;39.50;;;19.08;;
74245;SDS011;62601;51.044;13.788;2023-01-26T05:08:40;41.50;;;19.40;;
74245;SDS011;62601;51.044;13.788;2023-01-26T05:11:00;49.65;;;22.25;;
74245;SDS011;62601;51.044;13.788;2023-01-26T05:13:20;50.88;;;20.80;;
74245;SDS011;62601;51.044;13.788;2023-01-26T05:15:40;45.20;;;19.90;;
74245;SDS011;62601;51.044;13.788;2023-01-26T05:18:01;42.88;;;20.38;;
74245;SDS011;62601;51.044;13.788;2023-01-26T05:20:21;40.33;;;18.20;;
74245;SDS011;62601;51.044;13.788;2023-01-26T05:22:41;45.95;;;21.13;;
74245;SDS011;62601;51.044;13.788;2023-01-26T05:25:01;34.50;;;17.15;;
74245;SDS011;62601;51.044;13.788;2023-01-26T05:27:21;41.80;;;19.10;;
74245;SDS011;62601;51.044;13.788;2023-01-26T05:29:42;37.80;;;14.50;;
74245;SDS011;62601;51.044;13.788;2023-01-26T05:32:02;38.78;;;16.75;;
74245;SDS011;62601;51.044;13.788;2023-01-26T05:34:22;34.75;;;16.85;;
74245;SDS011;62601;51.044;13.788;2023-01-26T05:36:42;31.50;;;15.25;;
74245;SDS011;62601;51.044;13.788;2023-01-26T05:39:02;37.80;;;15.98;;
74245;SDS011;62601;51.044;13.788;2023-01-26T05:41:22;33.38;;;16.33;;
74245;SDS011;62601;51.044;13.788;2023-01-26T05:43:42;32.95;;;14.73;;
74245;SDS011;62601;51.044;13.788;2023-01-26T05:46:02;29.30;;;13.75;;
74245;SDS011;62601;51.044;13.788;2023-01-26T05:48:22;31.35;;;16.05;;
74245;SDS011;62601;51.044;13.788;2023-01-26T05:50:42;28.52;;;13.25;;
74245;SDS011;62601;51.044;13.788;2023-01-26T05:53:02;35.83;;;15.32;;
74245;SDS011;62601;51.044;13.788;2023-01-26T05:55:23;31.30;;;15.10;;
74245;SDS011;62601;51.044;13.788;2023-01-26T05:57:43;36.70;;;17.33;;
74245;SDS011;62601;51.044;13.788;2023-01-26T06:00:04;34.85;;;16.17;;
74245;SDS011;62601;51.044;13.788;2023-01-26T06:02:24;38.05;;;16.48;;
74245;SDS011;62601;51.044;13.788;2023-01-26T06:04:44;32.67;;;15.65;;
74245;SDS011;62601;51.044;13.788;2023-01-26T06:07:04;36.03;;;15.88;;
74245;SDS011;62601;51.044;13.788;2023-01-26T06:09:24;33.53;;;14.98;;
74245;SDS011;62601;51.044;13.788;2023-01-26T06:11:46;36.42;;;16.58;;
74245;SDS011;62601;51.044;13.788;2023-01-26T06:14:06;35.53;;;16.05;;
74245;SDS011;62601;51.044;13.788;2023-01-26T06:16:26;35.97;;;17.08;;
74245;SDS011;62601;51.044;13.788;2023-01-26T06:18:46;36.13;;;17.58;;
74245;SDS011;62601;51.044;13.788;2023-01-26T06:21:07;36.40;;;17.13;;
74245;SDS011;62601;51.044;13.788;2023-01-26T06:23:28;35.22;;;17.38;;
74245;SDS011;62601;51.044;13.788;2023-01-26T06:25:48;37.78;;;18.42;;
74245;SDS011;62601;51.044;13.788;2023-01-26T06:28:08;37.85;;;16.75;;
74245;SDS011;62601;51.044;13.788;2023-01-26T06:30:28;38.08;;;18.20;;
74245;SDS011;62601;51.044;13.788;2023-01-26T06:32:48;34.88;;;16.92;;
74245;SDS011;62601;51.044;13.788;2023-01-26T06:35:08;35.85;;;18.20;;
74245;SDS011;62601;51.044;13.788;2023-01-26T06:37:28;41.03;;;19.25;;
74245;SDS011;62601;51.044;13.788;2023-01-26T06:39:48;39.25;;;18.63;;
74245;SDS011;62601;51.044;13.788;2023-01-26T06:42:10;42.90;;;19.55;;
74245;SDS011;62601;51.044;13.788;2023-01-26T06:44:31;45.25;;;21.50;;
74245;SDS011;62601;51.044;13.788;2023-01-26T06:46:54;50.10;;;23.90;;
74245;SDS011;62601;51.044;13.788;2023-01-26T06:49:14;40.40;;;18.23;;
74245;SDS011;62601;51.044;13.788;2023-01-26T06:54:00;38.45;;;17.40;;
74245;SDS011;62601;51.044;13.788;2023-01-26T06:56:21;39.88;;;17.45;;
74245;SDS011;62601;51.044;13.788;2023-01-26T06:58:42;40.53;;;20.10;;
74245;SDS011;62601;51.044;13.788;2023-01-26T07:01:03;43.58;;;17.52;;
74245;SDS011;62601;51.044;13.788;2023-01-26T07:03:25;44.15;;;18.75;;
74245;SDS011;62601;51.044;13.788;2023-01-26T07:05:46;44.05;;;20.02;;
74245;SDS011;62601;51.044;13.788;2023-01-26T07:08:07;42.75;;;18.02;;
74245;SDS011;62601;51.044;13.788;2023-01-26T07:10:27;45.75;;;18.73;;
74245;SDS011;62601;51.044;13.788;2023-01-26T07:12:48;41.83;;;20.10;;
74245;SDS011;62601;51.044;13.788;2023-01-26T07:15:09;39.80;;;18.23;;
74245;SDS011;62601;51.044;13.788;2023-01-26T07:17:30;37.60;;;16.05;;
74245;SDS011;62601;51.044;13.788;2023-01-26T07:19:51;39.58;;;18.42;;
74245;SDS011;62601;51.044;13.788;2023-01-26T07:22:12;40.92;;;18.20;;
74245;SDS011;62601;51.044;13.788;2023-01-26T07:24:33;44.28;;;20.15;;
74245;SDS011;62601;51.044;13.788;2023-01-26T07:26:53;43.05;;;18.00;;
74245;SDS011;62601;51.044;13.788;2023-01-26T07:29:13;44.72;;;19.67;;
74245;SDS011;62601;51.044;13.788;2023-01-26T07:31:33;46.60;;;20.75;;
74245;SDS011;62601;51.044;13.788;2023-01-26T07:33:53;42.72;;;20.35;;
74245;SDS011;62601;51.044;13.788;2023-01-26T07:36:13;43.13;;;20.98;;
74245;SDS011;62601;51.044;13.788;2023-01-26T07:38:34;42.35;;;20.42;;
74245;SDS011;62601;51.044;13.788;2023-01-26T07:40:56;44.75;;;20.25;;
74245;SDS011;62601;51.044;13.788;2023-01-26T07:43:16;42.70;;;20.67;;
74245;SDS011;62601;51.044;13.788;2023-01-26T07:45:36;41.22;;;19.45;;
74245;SDS011;62601;51.044;13.788;2023-01-26T07:47:56;43.65;;;20.10;;
74245;SDS011;62601;51.044;13.788;2023-01-26T07:50:16;41.42;;;20.52;;
74245;SDS011;62601;51.044;13.788;2023-01-26T07:52:36;41.92;;;19.90;;
74245;SDS011;62601;51.044;13.788;2023-01-26T07:54:56;43.03;;;20.67;;
74245;SDS011;62601;51.044;13.788;2023-01-26T07:57:17;42.92;;;19.55;;
74245;SDS011;62601;51.044;13.788;2023-01-26T07:59:37;39.45;;;19.92;;
74245;SDS011;62601;51.044;13.788;2023-01-26T08:01:57;37.67;;;19.25;;
74245;SDS011;62601;51.044;13.788;2023-01-26T08:04:17;38.45;;;19.40;;
74245;SDS011;62601;51.044;13.788;2023-01-26T08:06:37;41.65;;;19.38;;
74245;SDS011;62601;51.044;13.788;2023-01-26T08:08:57;45.90;;;22.45;;
74245;SDS011;62601;51.044;13.788;2023-01-26T08:11:18;44.00;;;21.20;;
74245;SDS011;62601;51.044;13.788;2023-01-26T08:13:38;45.70;;;21.73;;
74245;SDS011;62601;51.044;13.788;2023-01-26T08:16:05;41.20;;;20.65;;
74245;SDS011;62601;51.044;13.788;2023-01-26T08:18:25;41.58;;;20.60;;
74245;SDS011;62601;51.044;13.788;2023-01-26T08:20:51;45.55;;;20.67;;
74245;SDS011;62601;51.044;13.788;2023-01-26T08:23:12;41.47;;;21.27;;
74245;SDS011;62601;51.044;13.788;2023-01-26T08:25:32;43.30;;;20.42;;
74245;SDS011;62601;51.044;13.788;2023-01-26T08:27:53;39.92;;;21.67;;
74245;SDS011;62601;51.044;13.788;2023-01-26T08:30:15;42.03;;;21.08;;
74245;SDS011;62601;51.044;13.788;2023-01-26T08:32:35;40.22;;;20.70;;
74245;SDS011;62601;51.044;13.788;2023-01-26T08:34:55;49.45;;;23.55;;
74245;SDS011;62601;51.044;13.788;2023-01-26T08:37:15;43.03;;;24.30;;
74245;SDS011;62601;51.044;13.788;2023-01-26T08:39:35;50.70;;;26.17;;
74245;SDS011;62601;51.044;13.788;2023-01-26T08:41:55;53.25;;;27.77;;
74245;SDS011;62601;51.044;13.788;2023-01-26T08:44:16;38.40;;;20.45;;
74245;SDS011;62601;51.044;13.788;2023-01-26T08:46:37;48.80;;;21.58;;
74245;SDS011;62601;51.044;13.788;2023-01-26T08:48:57;42.83;;;21.88;;
74245;SDS011;62601;51.044;13.788;2023-01-26T08:51:17;39.97;;;20.88;;
74245;SDS011;62601;51.044;13.788;2023-01-26T08:53:37;44.45;;;22.48;;
74245;SDS011;62601;51.044;13.788;2023-01-26T08:55:59;42.80;;;20.98;;
74245;SDS011;62601;51.044;13.788;2023-01-26T08:58:20;46.42;;;22.20;;
74245;SDS011;62601;51.044;13.788;2023-01-26T09:00:40;48.80;;;22.15;;
74245;SDS011;62601;51.044;13.788;2023-01-26T09:03:03;46.58;;;22.30;;
74245;SDS011;62601;51.044;13.788;2023-01-26T09:05:24;46.40;;;22.77;;
74245;SDS011;62601;51.044;13.788;2023-01-26T09:07:46;47.15;;;22.40;;
74245;SDS011;62601;51.044;13.788;2023-01-26T09:10:06;44.72;;;25.52;;
74245;SDS011;62601;51.044;13.788;2023-01-26T09:12:26;45.15;;;22.63;;
74245;SDS011;62601;51.044;13.788;2023-01-26T09:14:48;45.13;;;21.02;;
74245;SDS011;62601;51.044;13.788;2023-01-26T09:17:09;39.90;;;19.45;;
74245;SDS011;62601;51.044;13.788;2023-01-26T09:19:29;45.80;;;21.98;;
74245;SDS011;62601;51.044;13.788;2023-01-26T09:21:54;44.60;;;21.70;;
74245;SDS011;62601;51.044;13.788;2023-01-26T09:24:15;46.20;;;20.90;;
74245;SDS011;62601;51.044;13.788;2023-01-26T09:26:35;43.30;;;20.10;;
74245;SDS011;62601;51.044;13.788;2023-01-26T09:28:57;44.72;;;21.58;;
74245;SDS011;62601;51.044;13.788;2023-01-26T09:31:18;36.45;;;20.40;;
74245;SDS011;62601;51.044;13.788;2023-01-26T09:33:38;39.60;;;19.67;;
74245;SDS011;62601;51.044;13.788;2023-01-26T09:36:03;49.70;;;22.25;;
74245;SDS011;62601;51.044;13.788;2023-01-26T09:38:24;40.88;;;19.10;;
74245;SDS011;62601;51.044;13.788;2023-01-26T09:43:23;40.90;;;20.10;;
74245;SDS011;62601;51.044;13.788;2023-01-26T09:45:57;47.47;;;21.08;;
74245;SDS011;62601;51.044;13.788;2023-01-26T09:51:02;39.28;;;19.30;;
74245;SDS011;62601;51.044;13.788;2023-01-26T09:53:25;44.58;;;20.45;;
74245;SDS011;62601;51.044;13.788;2023-01-26T09:55:45;45.38;;;21.80;;
74245;SDS011;62601;51.044;13.788;2023-01-26T09:58:14;41.22;;;19.63;;
74245;SDS011;62601;51.044;13.788;2023-01-26T10:00:54;52.78;;;21.63;;
74245;SDS011;62601;51.044;13.788;2023-01-26T10:03:32;44.63;;;20.45;;
74245;SDS011;62601;51.044;13.788;2023-01-26T10:06:02;46.10;;;21.00;;
74245;SDS011;62601;51.044;13.788;2023-01-26T10:08:26;45.00;;;20.98;;
74245;SDS011;62601;51.044;13.788;2023-01-26T10:10:57;40.08;;;19.33;;
74245;SDS011;62601;51.044;13.788;2023-01-26T10:13:20;44.47;;;20.30;;
74245;SDS011;62601;51.044;13.788;2023-01-26T10:15:42;45.83;;;20.63;;
74245;SDS011;62601;51.044;13.788;2023-01-26T10:18:05;41.17;;;19.92;;
74245;SDS011;62601;51.044;13.788;2023-01-26T10:20:30;40.78;;;18.88;;
74245;SDS011;62601;51.044;13.788;2023-01-26T10:22:58;40.33;;;19.02;;
74245;SDS011;62601;51.044;13.788;2023-01-26T10:28:11;42.28;;;19.42;;
74245;SDS011;62601;51.044;13.788;2023-01-26T10:30:33;39.60;;;18.63;;
74245;SDS011;62601;51.044;13.788;2023-01-26T10:32:55;40.25;;;18.92;;
74245;SDS011;62601;51.044;13.788;2023-01-26T10:35:18;41.72;;;19.08;;
74245;SDS011;62601;51.044;13.788;2023-01-26T10:37:40;41.50;;;18.25;;
74245;SDS011;62601;51.044;13.788;2023-01-26T10:40:04;37.80;;;18.30;;
74245;SDS011;62601;51.044;13.788;2023-01-26T10:42:29;38.38;;;18.05;;
74245;SDS011;62601;51.044;13.788;2023-01-26T10:44:51;44.03;;;19.88;;
74245;SDS011;62601;51.044;13.788;2023-01-26T10:47:17;50.92;;;22.35;;
74245;SDS011;62601;51.044;13.788;2023-01-26T10:49:38;38.35;;;19.40;;
74245;SDS011;62601;51.044;13.788;2023-01-26T10:52:13;45.70;;;20.42;;
74245;SDS011;62601;51.044;13.788;2023-01-26T10:54:34;38.92;;;18.67;;
74245;SDS011;62601;51.044;13.788;2023-01-26T10:56:58;36.72;;;17.95;;
74245;SDS011;62601;51.044;13.788;2023-01-26T11:02:01;36.20;;;17.67;;
74245;SDS011;62601;51.044;13.788;2023-01-26T11:04:23;38.83;;;18.02;;
74245;SDS011;62601;51.044;13.788;2023-01-26T11:06:45;39.15;;;18.55;;
74245;SDS011;62601;51.044;13.788;2023-01-26T11:09:14;39.55;;;18.65;;
74245;SDS011;62601;51.044;13.788;2023-01-26T11:11:40;37.53;;;19.67;;
74245;SDS011;62601;51.044;13.788;2023-01-26T11:14:18;34.92;;;18.20;;
74245;SDS011;62601;51.044;13.788;2023-01-26T11:16:38;42.15;;;20.10;;
74245;SDS011;62601;51.044;13.788;2023-01-26T11:19:20;37.75;;;18.60;;
74245;SDS011;62601;51.044;13.788;2023-01-26T11:22:28;40.75;;;18.17;;
74245;SDS011;62601;51.044;13.788;2023-01-26T11:29:54;37.83;;;17.50;;
74245;SDS011;62601;51.044;13.788;2023-01-26T11:32:29;40.70;;;18.23;;
74245;SDS011;62601;51.044;13.788;2023-01-26T11:40:31;40.50;;;17.85;;
74245;SDS011;62601;51.044;13.788;2023-01-26T11:45:35;40.65;;;20.60;;
74245;SDS011;62601;51.044;13.788;2023-01-26T11:48:07;35.05;;;17.98;;
74245;SDS011;62601;51.044;13.788;2023-01-26T11:56:09;44.38;;;19.85;;
74245;SDS011;62601;51.044;13.788;2023-01-26T11:58:39;35.72;;;17.85;;
74245;SDS011;62601;51.044;13.788;2023-01-26T12:01:09;37.10;;;17.23;;
74245;SDS011;62601;51.044;13.788;2023-01-26T12:03:49;32.22;;;16.27;;
74245;SDS011;62601;51.044;13.788;2023-01-26T12:06:13;35.60;;;17.50;;
74245;SDS011;62601;51.044;13.788;2023-01-26T12:11:19;35.53;;;17.95;;
74245;SDS011;62601;51.044;13.788;2023-01-26T12:13:42;35.70;;;17.90;;
74245;SDS011;62601;51.044;13.788;2023-01-26T12:16:06;35.90;;;18.35;;
74245;SDS011;62601;51.044;13.788;2023-01-26T12:18:35;39.72;;;18.50;;
74245;SDS011;62601;51.044;13.788;2023-01-26T12:21:11;37.85;;;17.50;;
74245;SDS011;62601;51.044;13.788;2023-01-26T12:23:50;36.20;;;18.52;;
74245;SDS011;62601;51.044;13.788;2023-01-26T12:26:12;37.33;;;17.50;;
74245;SDS011;62601;51.044;13.788;2023-01-26T12:28:54;35.60;;;17.65;;
74245;SDS011;62601;51.044;13.788;2023-01-26T12:31:35;32.50;;;16.55;;
74245;SDS011;62601;51.044;13.788;2023-01-26T12:33:59;30.35;;;16.00;;
74245;SDS011;62601;51.044;13.788;2023-01-26T12:47:06;28.00;;;13.60;;
74245;SDS011;62601;51.044;13.788;2023-01-26T12:49:35;32.70;;;16.55;;
74245;SDS011;62601;51.044;13.788;2023-01-26T12:51:59;31.08;;;15.75;;
74245;SDS011;62601;51.044;13.788;2023-01-26T12:54:44;29.63;;;14.65;;
74245;SDS011;62601;51.044;13.788;2023-01-26T12:57:10;28.23;;;15.32;;
74245;SDS011;62601;51.044;13.788;2023-01-26T12:59:35;28.17;;;13.55;;
74245;SDS011;62601;51.044;13.788;2023-01-26T13:01:57;31.90;;;15.75;;
74245;SDS011;62601;51.044;13.788;2023-01-26T13:04:18;26.98;;;14.25;;
74245;SDS011;62601;51.044;13.788;2023-01-26T13:06:39;27.92;;;12.85;;
74245;SDS011;62601;51.044;13.788;2023-01-26T13:11:44;26.90;;;13.32;;
74245;SDS011;62601;51.044;13.788;2023-01-26T13:16:49;26.45;;;13.32;;
74245;SDS011;62601;51.044;13.788;2023-01-26T13:19:09;24.15;;;12.68;;
74245;SDS011;62601;51.044;13.788;2023-01-26T13:21:51;25.40;;;12.52;;
74245;SDS011;62601;51.044;13.788;2023-01-26T13:26:42;23.20;;;11.75;;
74245;SDS011;62601;51.044;13.788;2023-01-26T13:31:42;29.27;;;12.45;;
74245;SDS011;62601;51.044;13.788;2023-01-26T13:34:05;23.27;;;11.60;;
74245;SDS011;62601;51.044;13.788;2023-01-26T13:36:37;27.50;;;13.75;;
74245;SDS011;62601;51.044;13.788;2023-01-26T13:39:01;27.83;;;12.20;;
74245;SDS011;62601;51.044;13.788;2023-01-26T13:41:32;21.77;;;11.88;;
74245;SDS011;62601;51.044;13.788;2023-01-26T13:43:59;25.10;;;11.98;;
74245;SDS011;62601;51.044;13.788;2023-01-26T13:46:41;22.48;;;12.50;;
74245;SDS011;62601;51.044;13.788;2023-01-26T13:49:05;21.02;;;11.77;;
74245;SDS011;62601;51.044;13.788;2023-01-26T13:51:30;21.35;;;12.68;;
74245;SDS011;62601;51.044;13.788;2023-01-26T13:54:03;27.52;;;13.02;;
74245;SDS011;62601;51.044;13.788;2023-01-26T13:56:26;23.77;;;13.13;;
74245;SDS011;62601;51.044;13.788;2023-01-26T13:58:47;31.50;;;15.10;;
74245;SDS011;62601;51.044;13.788;2023-01-26T14:01:10;25.13;;;13.05;;
74245;SDS011;62601;51.044;13.788;2023-01-26T14:03:32;22.00;;;11.65;;
74245;SDS011;62601;51.044;13.788;2023-01-26T14:06:10;21.63;;;12.25;;
74245;SDS011;62601;51.044;13.788;2023-01-26T14:08:32;21.90;;;11.50;;
74245;SDS011;62601;51.044;13.788;2023-01-26T14:10:52;21.02;;;11.32;;
74245;SDS011;62601;51.044;13.788;2023-01-26T14:13:18;21.48;;;12.75;;
74245;SDS011;62601;51.044;13.788;2023-01-26T14:15:39;23.75;;;13.05;;
74245;SDS011;62601;51.044;13.788;2023-01-26T14:18:00;18.75;;;11.52;;
74245;SDS011;62601;51.044;13.788;2023-01-26T14:20:30;23.40;;;12.75;;
74245;SDS011;62601;51.044;13.788;2023-01-26T14:23:01;23.77;;;12.35;;
74245;SDS011;62601;51.044;13.788;2023-01-26T14:25:21;21.85;;;12.48;;
74245;SDS011;62601;51.044;13.788;2023-01-26T14:27:41;22.88;;;12.35;;
74245;SDS011;62601;51.044;13.788;2023-01-26T14:30:03;20.85;;;11.88;;
74245;SDS011;62601;51.044;13.788;2023-01-26T14:32:23;19.30;;;11.85;;
74245;SDS011;62601;51.044;13.788;2023-01-26T14:34:53;24.10;;;12.50;;
74245;SDS011;62601;51.044;13.788;2023-01-26T14:37:14;20.58;;;10.95;;
74245;SDS011;62601;51.044;13.788;2023-01-26T14:39:35;25.60;;;11.75;;
74245;SDS011;62601;51.044;13.788;2023-01-26T14:41:55;25.52;;;11.63;;